createdAt,value
2022-10-26T00:01:20.864Z,9.10
2022-10-26T00:03:49.397Z,9.10
2022-10-26T00:06:20.733Z,9.00
2022-10-26T00:08:50.161Z,9.10
2022-10-26T00:11:19.962Z,9.00
2022-10-26T00:13:49.261Z,9.00
2022-10-26T00:16:20.789Z,9.00
2022-10-26T00:18:49.532Z,9.10
2022-10-26T00:21:18.582Z,9.10
2022-10-26T00:23:47.203Z,9.20
2022-10-26T00:26:15.796Z,9.30
2022-10-26T00:28:44.323Z,9.30
2022-10-26T00:31:17.423Z,9.40
2022-10-26T00:33:45.889Z,9.60
2022-10-26T00:36:16.033Z,9.70
2022-10-26T00:38:46.281Z,9.80
2022-10-26T00:41:20.253Z,9.90
2022-10-26T00:43:49.314Z,10.10
2022-10-26T00:46:29.893Z,10.10
2022-10-26T00:49:01.460Z,10.20
2022-10-26T00:51:39.030Z,10.20
2022-10-26T00:54:10.586Z,10.30
2022-10-26T00:56:39.485Z,10.20
2022-10-26T00:59:11.085Z,10.20
2022-10-26T01:01:42.286Z,10.20
2022-10-26T01:04:12.089Z,10.20
2022-10-26T01:06:42.305Z,10.20
2022-10-26T01:09:11.999Z,10.30
2022-10-26T01:11:40.544Z,10.30
2022-10-26T01:14:10.786Z,10.30
2022-10-26T01:16:48.268Z,10.30
2022-10-26T01:19:53.564Z,10.30
2022-10-26T01:22:24.695Z,10.30
2022-10-26T01:24:56.356Z,10.30
2022-10-26T01:27:36.301Z,10.30
2022-10-26T01:30:34.687Z,10.30
2022-10-26T01:33:22.535Z,10.30
2022-10-26T01:36:09.347Z,10.30
2022-10-26T01:38:46.558Z,10.30
2022-10-26T01:41:18.120Z,10.30
2022-10-26T01:43:49.656Z,10.20
2022-10-26T01:48:50.981Z,10.20
2022-10-26T01:51:20.600Z,10.20
2022-10-26T01:53:49.133Z,10.20
2022-10-26T01:56:23.694Z,10.20
2022-10-26T01:59:07.304Z,10.20
2022-10-26T02:01:53.791Z,10.20
2022-10-26T02:04:52.096Z,10.20
2022-10-26T02:07:26.191Z,10.20
2022-10-26T02:10:06.672Z,10.20
2022-10-26T02:13:06.741Z,10.20
2022-10-26T02:15:46.820Z,10.10
2022-10-26T02:18:32.970Z,10.10
2022-10-26T02:21:10.467Z,10.10
2022-10-26T02:23:41.612Z,10.10
2022-10-26T02:26:13.116Z,10.10
2022-10-26T02:28:50.605Z,10.10
2022-10-26T02:31:20.632Z,10.10
2022-10-26T02:33:52.280Z,10.20
2022-10-26T02:36:23.791Z,10.20
2022-10-26T02:38:53.765Z,10.30
2022-10-26T02:41:24.638Z,10.30
2022-10-26T02:43:56.157Z,10.30
2022-10-26T02:46:27.562Z,10.30
2022-10-26T02:48:56.965Z,10.30
2022-10-26T02:51:37.327Z,10.30
2022-10-26T02:54:26.848Z,10.30
2022-10-26T02:57:04.581Z,10.30
2022-10-26T02:59:36.562Z,10.30
2022-10-26T03:02:06.254Z,10.30
2022-10-26T03:04:35.821Z,10.30
2022-10-26T03:07:04.324Z,10.30
2022-10-26T03:09:32.783Z,10.30
2022-10-26T03:12:01.225Z,10.30
2022-10-26T03:14:29.701Z,10.20
2022-10-26T03:16:58.202Z,10.20
2022-10-26T03:19:26.640Z,10.20
2022-10-26T03:21:55.158Z,10.10
2022-10-26T03:24:23.798Z,10.20
2022-10-26T03:26:52.274Z,10.20
2022-10-26T03:29:20.827Z,10.10
2022-10-26T03:31:51.082Z,10.10
2022-10-26T03:34:19.581Z,10.10
2022-10-26T03:36:48.634Z,10.20
2022-10-26T03:39:17.168Z,10.10
2022-10-26T03:41:45.658Z,10.20
2022-10-26T03:44:14.332Z,10.20
2022-10-26T03:46:43.062Z,10.30
2022-10-26T03:49:11.713Z,10.20
2022-10-26T03:51:40.314Z,10.20
2022-10-26T03:54:08.890Z,10.10
2022-10-26T03:56:37.418Z,10.20
2022-10-26T03:59:05.937Z,10.20
2022-10-26T04:01:34.498Z,10.20
2022-10-26T04:04:03.149Z,10.30
2022-10-26T04:06:31.703Z,10.20
2022-10-26T04:09:01.831Z,10.20
2022-10-26T04:11:30.992Z,10.20
2022-10-26T04:14:01.096Z,10.30
2022-10-26T04:16:32.658Z,10.20
2022-10-26T04:18:59.933Z,10.30
2022-10-26T04:21:28.478Z,10.30
2022-10-26T04:23:56.949Z,10.30
2022-10-26T04:26:25.499Z,10.30
2022-10-26T04:28:54.350Z,10.40
2022-10-26T04:31:22.834Z,10.40
2022-10-26T04:33:51.470Z,10.40
2022-10-26T04:36:19.995Z,10.40
2022-10-26T04:38:50.444Z,10.40
2022-10-26T04:41:18.929Z,10.40
2022-10-26T04:43:47.378Z,10.40
2022-10-26T04:46:16.891Z,10.30
2022-10-26T04:48:45.494Z,10.20
2022-10-26T04:51:13.957Z,10.20
2022-10-26T04:56:29.450Z,10.20
2022-10-26T04:58:57.982Z,10.20
2022-10-26T05:01:26.707Z,10.20
2022-10-26T05:03:55.930Z,10.20
2022-10-26T05:06:24.731Z,10.20
2022-10-26T05:08:53.361Z,10.40
2022-10-26T05:11:21.874Z,10.50
2022-10-26T05:13:50.428Z,10.50
2022-10-26T05:16:18.951Z,10.70
2022-10-26T05:18:49.585Z,10.70
2022-10-26T05:21:20.311Z,10.70
2022-10-26T05:23:55.407Z,10.70
2022-10-26T05:26:24.601Z,10.70
2022-10-26T05:28:53.623Z,10.70
2022-10-26T05:31:22.639Z,10.70
2022-10-26T05:33:51.930Z,10.60
2022-10-26T05:36:20.843Z,10.60
2022-10-26T05:38:49.387Z,10.50
2022-10-26T05:41:17.894Z,10.50
2022-10-26T05:43:48.598Z,10.50
2022-10-26T05:46:17.198Z,10.40
2022-10-26T05:48:45.825Z,10.40
2022-10-26T05:51:14.508Z,10.40
2022-10-26T05:53:43.194Z,10.40
2022-10-26T05:56:18.702Z,11.10
2022-10-26T05:58:48.176Z,11.10
2022-10-26T06:01:22.806Z,11.90
2022-10-26T06:04:03.365Z,12.60
2022-10-26T06:06:36.590Z,12.90
2022-10-26T06:09:05.365Z,13.10
2022-10-26T06:11:34.208Z,13.40
2022-10-26T06:14:03.638Z,13.60
2022-10-26T06:16:40.717Z,13.80
2022-10-26T06:19:18.003Z,13.80
2022-10-26T06:22:18.110Z,14.00
2022-10-26T06:24:58.211Z,14.00
2022-10-26T06:27:41.754Z,14.00
2022-10-26T06:30:12.179Z,14.00
2022-10-26T06:32:43.325Z,14.00
2022-10-26T06:35:32.816Z,14.00
2022-10-26T06:38:04.746Z,14.30
2022-10-26T06:40:36.318Z,14.30
2022-10-26T06:43:05.156Z,14.20
2022-10-26T06:45:33.982Z,14.30
2022-10-26T06:48:05.656Z,14.30
2022-10-26T06:50:54.094Z,14.30
2022-10-26T06:53:48.292Z,14.40
2022-10-26T06:56:17.557Z,14.40
2022-10-26T06:58:46.965Z,14.50
2022-10-26T07:01:15.885Z,14.50
2022-10-26T07:03:44.489Z,14.60
2022-10-26T07:06:13.179Z,14.50
2022-10-26T07:08:41.775Z,14.50
2022-10-26T07:11:10.310Z,14.50
2022-10-26T07:13:38.839Z,14.60
2022-10-26T07:16:07.542Z,14.60
2022-10-26T07:18:36.265Z,14.70
2022-10-26T07:21:04.921Z,14.70
2022-10-26T07:23:33.403Z,14.70
2022-10-26T07:26:01.999Z,14.80
2022-10-26T07:28:30.532Z,14.90
2022-10-26T07:30:59.876Z,14.90
2022-10-26T07:33:28.416Z,14.90
2022-10-26T07:35:57.060Z,15.10
2022-10-26T07:38:25.619Z,15.10
2022-10-26T07:40:54.273Z,15.20
2022-10-26T07:43:22.965Z,15.30
2022-10-26T07:45:51.665Z,15.40
2022-10-26T07:48:20.308Z,15.60
2022-10-26T07:50:49.198Z,15.60
2022-10-26T07:53:17.777Z,15.80
2022-10-26T07:55:54.864Z,15.90
2022-10-26T07:58:25.102Z,16.00
2022-10-26T08:00:54.462Z,16.10
2022-10-26T08:03:23.054Z,16.30
2022-10-26T08:05:53.543Z,16.40
2022-10-26T08:08:22.629Z,16.50
2022-10-26T08:10:52.390Z,16.60
2022-10-26T08:13:21.014Z,16.60
2022-10-26T08:15:49.613Z,16.60
2022-10-26T08:18:18.217Z,16.70
2022-10-26T08:20:46.796Z,16.80
2022-10-26T08:23:15.291Z,16.80
2022-10-26T08:25:43.894Z,16.90
2022-10-26T08:28:12.417Z,17.00
2022-10-26T08:30:41.040Z,17.20
2022-10-26T08:33:10.901Z,17.60
2022-10-26T08:35:39.404Z,18.00
2022-10-26T08:38:08.069Z,19.60
2022-10-26T08:40:39.465Z,20.40
2022-10-26T08:43:42.624Z,20.70
2022-10-26T08:46:14.416Z,21.20
2022-10-26T08:48:49.026Z,20.60
2022-10-26T08:51:30.543Z,21.30
2022-10-26T08:54:02.361Z,21.80
2022-10-26T08:56:44.880Z,22.30
2022-10-26T08:59:33.573Z,21.60
2022-10-26T09:02:02.691Z,20.70
2022-10-26T09:04:34.618Z,21.10
2022-10-26T09:07:34.776Z,21.70
2022-10-26T09:10:14.534Z,20.60
2022-10-26T09:12:54.753Z,19.60
2022-10-26T09:15:46.896Z,19.00
2022-10-26T09:18:24.083Z,19.50
2022-10-26T09:20:58.451Z,21.60
2022-10-26T09:23:46.403Z,21.80
2022-10-26T09:26:42.159Z,22.20
2022-10-26T09:29:15.109Z,23.30
2022-10-26T09:31:50.710Z,24.40
2022-10-26T09:34:25.313Z,23.70
2022-10-26T09:36:56.733Z,23.20
2022-10-26T09:39:33.852Z,23.20
2022-10-26T09:42:14.310Z,22.80
2022-10-26T09:44:48.921Z,22.80
2022-10-26T09:47:38.919Z,24.70
2022-10-26T09:50:10.691Z,23.80
2022-10-26T09:52:39.263Z,24.10
2022-10-26T09:55:09.516Z,24.30
2022-10-26T09:57:39.857Z,24.70
2022-10-26T10:00:09.997Z,24.20
2022-10-26T10:02:42.452Z,25.10
2022-10-26T10:08:27.361Z,24.90
2022-10-26T10:13:37.251Z,26.00
2022-10-26T10:16:08.990Z,26.40
2022-10-26T10:18:39.031Z,25.40
2022-10-26T10:21:08.442Z,25.10
2022-10-26T10:23:54.246Z,25.20
2022-10-26T10:29:03.689Z,28.00
2022-10-26T10:31:34.437Z,26.90
2022-10-26T10:34:07.073Z,26.80
2022-10-26T10:36:35.716Z,26.80
2022-10-26T10:39:06.009Z,25.90
2022-10-26T10:41:37.151Z,27.50
2022-10-26T10:44:08.975Z,28.60
2022-10-26T10:46:38.017Z,25.40
2022-10-26T10:49:09.548Z,24.00
2022-10-26T10:51:40.835Z,23.10
2022-10-26T10:54:24.439Z,22.50
2022-10-26T10:56:56.396Z,25.80
2022-10-26T10:59:30.755Z,28.10
2022-10-26T11:02:08.464Z,29.30
2022-10-26T11:04:48.845Z,28.90
2022-10-26T11:07:19.093Z,28.30
2022-10-26T11:09:49.985Z,28.30
2022-10-26T11:12:21.774Z,28.30
2022-10-26T11:14:53.467Z,28.70
2022-10-26T11:17:31.085Z,29.00
2022-10-26T11:20:02.538Z,28.60
2022-10-26T11:22:39.734Z,28.70
2022-10-26T11:28:17.738Z,30.60
2022-10-26T11:30:52.167Z,30.00
2022-10-26T11:33:26.251Z,29.70
2022-10-26T11:36:00.088Z,28.40
2022-10-26T11:38:57.132Z,28.50
2022-10-26T11:41:27.145Z,26.50
2022-10-26T11:44:15.177Z,26.70
2022-10-26T11:46:52.633Z,27.10
2022-10-26T11:49:57.164Z,27.70
2022-10-26T11:52:40.728Z,29.30
2022-10-26T11:55:11.549Z,28.00
2022-10-26T11:57:41.945Z,27.60
2022-10-26T12:00:20.495Z,27.80
2022-10-26T12:02:54.997Z,27.90
2022-10-26T12:05:48.936Z,28.00
2022-10-26T12:08:27.212Z,27.20
2022-10-26T12:11:04.532Z,26.10
2022-10-26T12:13:41.997Z,26.20
2022-10-26T12:16:17.949Z,27.50
2022-10-26T12:18:56.673Z,26.40
2022-10-26T12:21:29.015Z,26.10
2022-10-26T12:24:25.900Z,27.70
2022-10-26T12:26:57.574Z,26.30
2022-10-26T12:29:29.120Z,25.00
2022-10-26T12:31:58.179Z,26.20
2022-10-26T12:34:38.029Z,27.30
2022-10-26T12:37:09.651Z,28.50
2022-10-26T12:39:43.130Z,28.10
2022-10-26T12:42:20.435Z,27.70
2022-10-26T12:44:54.568Z,27.00
2022-10-26T12:47:32.215Z,25.70
2022-10-26T12:50:12.810Z,26.90
2022-10-26T12:52:59.547Z,26.20
2022-10-26T12:55:36.985Z,26.00
2022-10-26T12:58:43.006Z,25.10
2022-10-26T13:01:42.638Z,25.20
2022-10-26T13:04:28.726Z,25.00
2022-10-26T13:07:28.638Z,25.10
2022-10-26T13:10:05.999Z,24.80
2022-10-26T13:12:49.763Z,25.00
2022-10-26T13:15:35.815Z,25.50
2022-10-26T13:18:13.634Z,24.40
2022-10-26T13:20:53.861Z,25.10
2022-10-26T13:23:28.656Z,24.70
2022-10-26T13:26:04.893Z,26.10
2022-10-26T13:28:42.052Z,25.70
2022-10-26T13:31:31.335Z,26.00
2022-10-26T13:34:02.995Z,26.80
2022-10-26T13:36:40.802Z,26.40
2022-10-26T13:39:21.173Z,24.50
2022-10-26T13:41:52.716Z,23.30
2022-10-26T13:44:31.963Z,23.00
2022-10-26T13:47:06.433Z,22.20
2022-10-26T13:49:43.042Z,22.40
2022-10-26T13:52:24.719Z,23.50
2022-10-26T13:54:56.310Z,23.30
2022-10-26T13:57:27.947Z,23.40
2022-10-26T14:00:03.030Z,23.00
2022-10-26T14:02:33.590Z,22.70
2022-10-26T14:05:04.584Z,23.60
2022-10-26T14:07:39.254Z,24.50
2022-10-26T14:10:08.188Z,25.30
2022-10-26T14:12:38.325Z,24.90
2022-10-26T14:15:10.881Z,24.70
2022-10-26T14:17:39.555Z,25.00
2022-10-26T14:20:09.802Z,25.00
2022-10-26T14:22:38.506Z,24.70
2022-10-26T14:25:10.036Z,24.80
2022-10-26T14:27:42.614Z,23.30
2022-10-26T14:30:22.586Z,23.80
2022-10-26T14:32:47.297Z,23.50
2022-10-26T14:35:16.682Z,24.30
2022-10-26T14:37:53.984Z,24.60
2022-10-26T14:40:25.697Z,24.20
2022-10-26T14:42:57.528Z,24.20
2022-10-26T14:45:47.528Z,25.20
2022-10-26T14:48:01.934Z,24.00
2022-10-26T14:50:32.149Z,23.60
2022-10-26T14:53:20.915Z,23.90
2022-10-26T14:55:53.213Z,24.30
2022-10-26T14:58:30.695Z,23.80
2022-10-26T15:01:25.878Z,23.60
2022-10-26T15:04:03.520Z,23.70
2022-10-26T15:06:35.232Z,23.20
2022-10-26T15:09:06.627Z,22.30
2022-10-26T15:11:36.205Z,22.40
2022-10-26T15:14:06.421Z,21.60
2022-10-26T15:16:36.719Z,21.30
2022-10-26T15:19:13.849Z,21.10
2022-10-26T15:24:27.560Z,20.70
2022-10-26T15:26:56.547Z,20.70
2022-10-26T15:29:46.130Z,20.50
2022-10-26T15:32:32.789Z,20.30
2022-10-26T15:35:22.046Z,20.20
2022-10-26T15:37:52.629Z,20.00
2022-10-26T15:40:23.814Z,19.90
2022-10-26T15:42:54.632Z,19.80
2022-10-26T15:45:29.434Z,19.70
2022-10-26T15:47:59.859Z,19.60
2022-10-26T15:50:30.048Z,19.40
2022-10-26T15:53:04.730Z,19.40
2022-10-26T15:55:33.358Z,19.30
2022-10-26T15:58:01.836Z,19.30
2022-10-26T16:00:30.393Z,19.10
2022-10-26T16:02:58.906Z,18.90
2022-10-26T16:05:27.673Z,18.80
2022-10-26T16:07:56.470Z,18.70
2022-10-26T16:10:26.430Z,18.60
2022-10-26T16:12:55.309Z,18.40
2022-10-26T16:15:25.269Z,18.40
2022-10-26T16:17:54.259Z,18.10
2022-10-26T16:20:27.177Z,18.00
2022-10-26T16:22:56.070Z,17.90
2022-10-26T16:25:26.517Z,17.60
2022-10-26T16:27:56.626Z,17.40
2022-10-26T16:30:30.269Z,17.20
2022-10-26T16:32:56.360Z,17.10
2022-10-26T16:35:25.137Z,16.90
2022-10-26T16:37:53.574Z,16.70
2022-10-26T16:40:22.398Z,16.50
2022-10-26T16:42:51.230Z,16.40
2022-10-26T16:45:20.047Z,16.20
2022-10-26T16:47:48.810Z,16.00
2022-10-26T16:50:19.256Z,15.80
2022-10-26T16:52:48.108Z,15.70
2022-10-26T16:55:16.883Z,15.60
2022-10-26T16:57:45.507Z,16.00
2022-10-26T17:00:14.379Z,16.30
2022-10-26T17:02:43.118Z,16.30
2022-10-26T17:05:11.639Z,16.60
2022-10-26T17:07:40.501Z,16.60
2022-10-26T17:10:09.390Z,16.40
2022-10-26T17:12:37.919Z,16.50
2022-10-26T17:15:06.895Z,16.40
2022-10-26T17:17:35.405Z,16.50
2022-10-26T17:20:04.009Z,16.50
2022-10-26T17:22:32.989Z,16.50
2022-10-26T17:25:01.475Z,16.50
2022-10-26T17:27:32.788Z,16.50
2022-10-26T17:30:01.507Z,16.30
2022-10-26T17:32:30.997Z,16.20
2022-10-26T17:35:01.090Z,16.20
2022-10-26T17:39:58.052Z,16.10
2022-10-26T17:42:26.997Z,16.10
2022-10-26T17:44:55.493Z,15.80
2022-10-26T17:47:24.051Z,15.30
2022-10-26T17:49:52.508Z,14.90
2022-10-26T17:52:22.626Z,14.60
2022-10-26T17:54:51.479Z,14.50
2022-10-26T17:57:19.911Z,14.80
2022-10-26T17:59:49.161Z,15.20
2022-10-26T18:02:17.657Z,15.60
2022-10-26T18:04:46.267Z,15.90
2022-10-26T18:07:14.865Z,16.10
2022-10-26T18:09:43.348Z,16.30
2022-10-26T18:12:11.882Z,16.30
2022-10-26T18:14:40.520Z,16.40
2022-10-26T18:17:09.073Z,16.50
2022-10-26T18:22:09.105Z,16.60
2022-10-26T18:24:37.707Z,16.70
2022-10-26T18:27:06.300Z,16.80
2022-10-26T18:29:37.443Z,16.80
2022-10-26T18:32:05.322Z,16.80
2022-10-26T18:34:33.990Z,17.10
2022-10-26T18:37:02.506Z,17.10
2022-10-26T18:39:31.545Z,17.10
2022-10-26T18:42:00.108Z,16.90
2022-10-26T18:44:28.713Z,16.90
2022-10-26T18:46:57.157Z,16.90
2022-10-26T18:49:26.712Z,16.90
2022-10-26T18:51:55.418Z,16.90
2022-10-26T18:54:27.169Z,16.80
2022-10-26T18:56:55.062Z,16.80
2022-10-26T18:59:23.666Z,16.70
2022-10-26T19:01:53.007Z,16.50
2022-10-26T19:04:21.595Z,16.40
2022-10-26T19:06:50.409Z,16.30
2022-10-26T19:09:20.986Z,16.30
2022-10-26T19:11:49.628Z,16.30
2022-10-26T19:14:18.200Z,16.20
2022-10-26T19:16:48.040Z,16.00
2022-10-26T19:19:18.098Z,15.70
2022-10-26T19:21:48.395Z,15.10
2022-10-26T19:24:21.582Z,14.80
2022-10-26T19:26:51.390Z,14.70
2022-10-26T19:29:20.495Z,14.60
2022-10-26T19:31:51.694Z,14.40
2022-10-26T19:34:20.325Z,14.30
2022-10-26T19:36:48.939Z,14.30
2022-10-26T19:39:18.540Z,14.10
2022-10-26T19:41:47.577Z,14.10
2022-10-26T19:44:17.294Z,13.90
2022-10-26T19:46:46.706Z,13.80
2022-10-26T19:49:16.928Z,13.70
2022-10-26T19:51:46.774Z,13.60
2022-10-26T19:54:15.299Z,13.60
2022-10-26T19:56:43.819Z,13.90
2022-10-26T19:59:13.281Z,14.20
2022-10-26T20:01:41.872Z,14.40
2022-10-26T20:04:10.467Z,14.90
2022-10-26T20:06:39.040Z,15.20
2022-10-26T20:09:07.627Z,15.40
2022-10-26T20:11:38.012Z,15.30
2022-10-26T20:14:07.494Z,15.40
2022-10-26T20:16:36.351Z,15.50
2022-10-26T20:19:04.874Z,15.60
2022-10-26T20:21:33.333Z,15.50
2022-10-26T20:24:02.496Z,15.70
2022-10-26T20:26:31.998Z,15.70
2022-10-26T20:29:00.610Z,15.60
2022-10-26T20:31:29.524Z,15.60
2022-10-26T20:33:57.989Z,15.50
2022-10-26T20:36:27.047Z,15.50
2022-10-26T20:38:55.763Z,15.60
2022-10-26T20:41:24.738Z,15.40
2022-10-26T20:43:55.731Z,15.50
2022-10-26T20:46:25.877Z,15.50
2022-10-26T20:48:55.099Z,15.50
2022-10-26T20:52:08.239Z,15.40
2022-10-26T20:54:31.442Z,15.40
2022-10-26T20:57:02.925Z,15.30
2022-10-26T21:02:04.206Z,15.50
2022-10-26T21:04:32.755Z,15.50
2022-10-26T21:07:01.242Z,15.70
2022-10-26T21:09:31.757Z,15.60
2022-10-26T21:12:00.485Z,15.40
2022-10-26T21:14:29.553Z,15.50
2022-10-26T21:16:58.098Z,15.50
2022-10-26T21:19:26.597Z,15.50
2022-10-26T21:21:55.045Z,15.50
2022-10-26T21:24:23.615Z,15.40
2022-10-26T21:26:52.373Z,15.40
2022-10-26T21:29:20.981Z,15.30
2022-10-26T21:31:49.493Z,15.30
2022-10-26T21:34:18.073Z,15.40
2022-10-26T21:36:46.560Z,15.30
2022-10-26T21:39:15.112Z,15.40
2022-10-26T21:41:44.056Z,15.40
2022-10-26T21:44:25.775Z,15.40
2022-10-26T21:46:42.819Z,15.30
2022-10-26T21:49:11.310Z,15.40
2022-10-26T21:51:39.859Z,15.30
2022-10-26T21:54:08.465Z,15.20
2022-10-26T21:56:36.941Z,15.10
2022-10-26T21:59:07.121Z,15.20
2022-10-26T22:01:35.746Z,15.10
2022-10-26T22:04:04.372Z,15.20
2022-10-26T22:06:32.818Z,15.10
2022-10-26T22:09:01.403Z,15.10
2022-10-26T22:11:30.098Z,15.10
2022-10-26T22:13:58.904Z,15.30
2022-10-26T22:16:30.808Z,15.20
2022-10-26T22:19:02.304Z,15.00
2022-10-26T22:21:36.784Z,15.10
2022-10-26T22:24:06.212Z,15.10
2022-10-26T22:26:37.131Z,15.10
2022-10-26T22:29:06.341Z,15.10
2022-10-26T22:31:37.710Z,15.10
2022-10-26T22:34:08.584Z,15.10
2022-10-26T22:36:37.116Z,15.00
2022-10-26T22:39:05.730Z,15.10
2022-10-26T22:41:34.290Z,15.10
2022-10-26T22:44:02.817Z,15.20
2022-10-26T22:46:31.290Z,15.10
2022-10-26T22:49:02.260Z,15.10
2022-10-26T22:51:35.358Z,15.10
2022-10-26T22:54:05.338Z,15.10
2022-10-26T22:56:36.225Z,15.10
2022-10-26T22:59:05.977Z,15.10
2022-10-26T23:01:41.640Z,15.10
2022-10-26T23:04:14.107Z,15.00
2022-10-26T23:06:43.003Z,15.00
2022-10-26T23:09:11.532Z,15.00
2022-10-26T23:11:40.019Z,15.00
2022-10-26T23:14:09.627Z,15.10
2022-10-26T23:16:38.165Z,15.10
2022-10-26T23:19:06.651Z,14.90
2022-10-26T23:21:35.178Z,15.00
2022-10-26T23:24:03.694Z,14.90
2022-10-26T23:26:32.171Z,14.90
2022-10-26T23:29:00.610Z,15.00
2022-10-26T23:31:30.518Z,15.00
2022-10-26T23:33:58.959Z,14.90
2022-10-26T23:36:27.441Z,14.90
2022-10-26T23:38:55.954Z,14.90
2022-10-26T23:41:24.499Z,14.80
2022-10-26T23:43:52.968Z,14.80
2022-10-26T23:46:21.561Z,14.80
2022-10-26T23:48:50.065Z,14.80
2022-10-26T23:51:18.548Z,14.80
2022-10-26T23:53:47.113Z,14.70
2022-10-26T23:56:15.660Z,14.60
2022-10-26T23:58:44.147Z,14.60
